Time;durP1;ratioP1;P1;durP2;ratioP2;P2;SDS_P1;SDS_P2;PMS_P1;PMS_P2;Temp;Humidity;BMP_temperature;BMP_pressure;BME280_temperature;BME280_humidity;BME280_pressure;Samples;Min_cycle;Max_cycle;Signal;HPM_P1;HPM_P2
2022/04/04 00:01:12;;;;;;;14.07;9.57;;;;;;;6.36;71.79;100298.06;5111768;27;20027;-28
2022/04/04 00:03:37;;;;;;;14.55;9.00;;;;;;;6.22;70.88;100285.66;5130212;27;20077;-29
2022/04/04 00:06:02;;;;;;;17.27;10.35;;;;;;;6.34;71.76;100300.06;5130228;27;20080;-28
2022/04/04 00:08:28;;;;;;;14.82;9.07;;;;;;;6.26;70.48;100291.41;5111310;27;20084;-32
2022/04/04 00:10:53;;;;;;;16.08;9.65;;;;;;;6.41;70.20;100311.56;5130537;27;20027;-28
2022/04/04 00:13:19;;;;;;;18.05;9.82;;;;;;;6.42;69.66;100312.41;5130312;27;20039;-32
2022/04/04 00:15:45;;;;;;;16.88;10.07;;;;;;;6.22;70.23;100314.78;5111905;27;20091;-31
2022/04/04 00:18:11;;;;;;;16.52;10.43;;;;;;;6.11;70.64;100304.66;5130228;27;20035;-32
2022/04/04 00:20:40;;;;;;;17.23;10.45;;;;;;;6.25;69.61;100327.66;5111432;27;20027;-28
2022/04/04 00:23:12;;;;;;;18.38;11.23;;;;;;;6.22;70.02;100328.03;5111219;27;20054;-28
2022/04/04 00:25:41;;;;;;;17.23;10.27;;;;;;;5.99;69.99;100293.72;5130100;27;20066;-30
2022/04/04 00:28:06;;;;;;;18.48;11.50;;;;;;;6.09;70.25;100319.91;5111435;27;20077;-28
2022/04/04 00:30:32;;;;;;;19.58;12.13;;;;;;;6.13;69.67;100314.06;5129700;27;20456;-28
2022/04/04 00:32:58;;;;;;;17.38;11.20;;;;;;;6.11;69.75;100320.53;5129476;27;20721;-28
2022/04/04 00:35:23;;;;;;;17.85;11.20;;;;;;;6.06;69.54;100307.03;5111085;27;20027;-31
2022/04/04 00:37:49;;;;;;;17.75;11.23;;;;;;;6.11;69.23;100309.94;5129578;27;20098;-28
2022/04/04 00:40:14;;;;;;;19.75;11.82;;;;;;;6.06;69.47;100317.63;5129529;27;20020;-30
2022/04/04 00:42:40;;;;;;;17.02;11.18;;;;;;;5.92;70.26;100322.69;5129934;27;20134;-29
2022/04/04 00:45:06;;;;;;;19.33;11.38;;;;;;;5.82;69.80;100311.56;5129394;27;20027;-30
2022/04/04 00:47:32;;;;;;;18.70;11.57;;;;;;;5.83;70.41;100321.16;5110871;27;20027;-28
2022/04/04 00:49:58;;;;;;;21.50;12.55;;;;;;;5.69;70.95;100321.97;5110917;27;20034;-28
2022/04/04 00:52:24;;;;;;;21.00;12.85;;;;;;;5.79;70.53;100330.47;5110926;27;20173;-28
2022/04/04 00:54:49;;;;;;;18.15;11.18;;;;;;;5.71;69.45;100314.66;5129325;27;20050;-30
2022/04/04 00:57:16;;;;;;;20.40;12.40;;;;;;;5.81;69.04;100315.22;5110745;27;20076;-33
2022/04/04 00:59:42;;;;;;;23.00;13.45;;;;;;;5.96;68.92;100329.31;5110831;27;20042;-29
2022/04/04 01:02:07;;;;;;;21.00;13.68;;;;;;;5.86;70.09;100317.31;5110616;27;20487;-30
2022/04/04 01:04:33;;;;;;;27.85;12.98;;;;;;;5.98;69.02;100327.28;5110619;27;20114;-33
2022/04/04 01:06:59;;;;;;;20.02;12.38;;;;;;;5.98;67.68;100319.34;5128835;27;20046;-28
2022/04/04 01:09:25;;;;;;;21.73;14.20;;;;;;;5.92;67.98;100317.41;5110712;27;20027;-28
2022/04/04 01:12:09;;;;;;;20.33;12.85;;;;;;;5.98;67.45;100329.13;5129260;27;20035;-29
2022/04/04 01:14:36;;;;;;;21.25;13.30;;;;;;;5.95;67.98;100330.31;5110726;27;20106;-30
2022/04/04 01:17:03;;;;;;;21.80;13.75;;;;;;;5.78;67.83;100307.63;5110317;27;20122;-29
2022/04/04 01:19:28;;;;;;;22.27;13.77;;;;;;;5.71;68.09;100304.91;5110059;27;20034;-31
2022/04/04 01:21:54;;;;;;;20.73;13.40;;;;;;;5.77;67.88;100329.81;5129348;27;20035;-30
2022/04/04 01:24:21;;;;;;;22.42;12.45;;;;;;;5.57;68.05;100324.22;5128785;27;20475;-30
2022/04/04 01:26:51;;;;;;;21.83;12.95;;;;;;;5.70;67.92;100327.09;5110252;27;20039;-32
2022/04/04 01:29:18;;;;;;;23.52;13.00;;;;;;;5.90;67.44;100322.06;5109888;27;20468;-33
2022/04/04 01:31:44;;;;;;;23.02;13.20;;;;;;;5.79;67.12;100322.53;5128526;27;20027;-29
2022/04/04 01:34:09;;;;;;;22.48;13.38;;;;;;;5.92;68.33;100343.88;5109889;27;20047;-30
2022/04/04 01:36:35;;;;;;;20.42;13.10;;;;;;;6.06;67.48;100346.75;5129055;27;20035;-30
2022/04/04 01:39:01;;;;;;;20.75;13.50;;;;;;;5.95;66.66;100348.84;5128375;27;20039;-29
2022/04/04 01:41:27;;;;;;;21.55;14.25;;;;;;;5.94;67.79;100347.16;5110053;27;20027;-31
2022/04/04 01:43:52;;;;;;;19.80;13.18;;;;;;;5.64;68.27;100341.03;5128551;27;20110;-31
2022/04/04 01:46:24;;;;;;;20.50;12.88;;;;;;;5.73;67.69;100352.34;5128511;27;20054;-31
2022/04/04 01:48:54;;;;;;;18.52;12.68;;;;;;;5.68;68.21;100331.72;5110078;27;20122;-28
2022/04/04 01:51:20;;;;;;;18.90;12.18;;;;;;;5.75;66.98;100345.06;5109905;27;20529;-28
2022/04/04 01:53:46;;;;;;;20.92;13.02;;;;;;;5.74;67.82;100354.84;5128436;27;20416;-30
2022/04/04 01:56:13;;;;;;;22.02;13.27;;;;;;;5.53;67.94;100359.97;5128330;27;20550;-29
2022/04/04 01:58:40;;;;;;;20.50;13.40;;;;;;;5.66;67.04;100357.56;5109809;28;20535;-29
2022/04/04 02:01:14;;;;;;;20.13;12.70;;;;;;;5.42;67.90;100358.59;5109189;27;20526;-28
2022/04/04 02:03:41;;;;;;;19.95;12.98;;;;;;;5.19;69.20;100343.56;5109835;28;20582;-30
2022/04/04 02:06:07;;;;;;;20.42;13.05;;;;;;;5.33;68.71;100343.75;5109705;28;20027;-28
2022/04/04 02:08:33;;;;;;;21.90;13.25;;;;;;;5.13;68.87;100333.69;5109599;28;20158;-28
2022/04/04 02:11:00;;;;;;;19.48;12.10;;;;;;;5.09;69.66;100345.59;5109550;28;20501;-30
2022/04/04 02:13:27;;;;;;;22.08;13.27;;;;;;;5.29;69.26;100360.97;5109381;28;20027;-29
2022/04/04 02:15:53;;;;;;;17.55;11.57;;;;;;;5.36;68.72;100359.28;5109759;28;20037;-29
2022/04/04 02:18:19;;;;;;;21.77;14.07;;;;;;;5.15;69.23;100336.97;5109794;28;20206;-28
2022/04/04 02:20:46;;;;;;;19.40;12.18;;;;;;;5.29;68.64;100347.75;5114086;27;20043;-28
2022/04/04 02:23:12;;;;;;;20.63;13.18;;;;;;;5.50;68.78;100353.22;5113726;27;20027;-30
2022/04/04 02:25:37;;;;;;;21.10;13.48;;;;;;;5.61;67.95;100363.34;5113857;27;20034;-28
2022/04/04 02:28:03;;;;;;;20.25;12.60;;;;;;;5.55;68.47;100357.97;5113434;27;20047;-36
2022/04/04 02:30:29;;;;;;;20.13;12.73;;;;;;;5.45;68.62;100344.97;5132322;27;20041;-28
2022/04/04 02:32:55;;;;;;;28.77;16.08;;;;;;;5.53;68.16;100354.69;5132056;27;20027;-34
2022/04/04 02:35:20;;;;;;;23.33;14.00;;;;;;;5.69;68.30;100370.41;5132272;27;20035;-28
2022/04/04 02:37:47;;;;;;;28.77;15.38;;;;;;;5.79;66.58;100363.03;5132269;27;20072;-33
2022/04/04 02:40:12;;;;;;;24.33;14.57;;;;;;;5.62;67.02;100367.66;5132204;27;20407;-28
2022/04/04 02:42:38;;;;;;;19.25;11.52;;;;;;;5.56;65.83;100378.97;5113387;27;20031;-30
2022/04/04 02:45:04;;;;;;;18.70;12.15;;;;;;;5.48;66.11;100357.06;5113436;27;20035;-31
2022/04/04 02:47:30;;;;;;;19.95;11.93;;;;;;;5.51;66.78;100377.84;5113452;27;20023;-28
2022/04/04 02:49:55;;;;;;;20.90;13.88;;;;;;;5.47;65.90;100381.84;5132081;27;20023;-32
2022/04/04 02:52:20;;;;;;;19.23;12.30;;;;;;;5.35;65.54;100358.47;5113248;27;20033;-28
2022/04/04 02:54:46;;;;;;;21.48;13.27;;;;;;;5.40;66.06;100365.88;5131391;27;20019;-36
2022/04/04 02:57:12;;;;;;;20.02;12.73;;;;;;;5.37;66.71;100361.75;5131056;27;20102;-28
2022/04/04 02:59:38;;;;;;;23.38;13.48;;;;;;;5.29;67.38;100360.97;5113398;27;20066;-30
2022/04/04 03:02:04;;;;;;;21.23;13.02;;;;;;;5.31;67.08;100372.22;5128923;27;20067;-29
2022/04/04 03:04:30;;;;;;;20.05;13.48;;;;;;;5.22;66.97;100374.91;5113335;27;20027;-28
2022/04/04 03:06:56;;;;;;;23.63;14.45;;;;;;;5.22;67.08;100369.63;5131488;27;20080;-29
2022/04/04 03:09:21;;;;;;;22.25;12.52;;;;;;;5.16;67.37;100380.09;5131599;27;20033;-29
2022/04/04 03:11:47;;;;;;;28.70;14.38;;;;;;;5.23;67.29;100373.94;5131374;27;20034;-27
2022/04/04 03:14:12;;;;;;;26.27;12.98;;;;;;;5.40;66.95;100384.38;5113290;27;20030;-29
2022/04/04 03:16:38;;;;;;;32.33;14.27;;;;;;;5.20;66.18;100360.22;5131614;27;20062;-28
2022/04/04 03:19:03;;;;;;;18.95;11.88;;;;;;;5.14;66.03;100393.47;5131312;27;20043;-31
2022/04/04 03:21:29;;;;;;;17.60;11.05;;;;;;;5.08;64.66;100388.88;5131230;27;20046;-31
2022/04/04 03:23:55;;;;;;;20.00;12.38;;;;;;;5.02;65.08;100386.94;5131206;27;20070;-30
2022/04/04 03:26:21;;;;;;;15.80;10.05;;;;;;;5.07;63.45;100391.69;5112339;27;20054;-31
2022/04/04 03:28:46;;;;;;;13.00;7.60;;;;;;;4.93;62.79;100395.94;5130515;27;20031;-30
2022/04/04 03:31:13;;;;;;;16.15;9.23;;;;;;;4.72;64.17;100392.06;5129517;27;20375;-30
2022/04/04 03:33:39;;;;;;;17.02;9.98;;;;;;;4.92;62.92;100389.81;5112248;27;20055;-31
2022/04/04 03:36:06;;;;;;;14.50;8.25;;;;;;;4.88;61.76;100388.50;5112412;27;20038;-32
2022/04/04 03:38:33;;;;;;;14.18;9.05;;;;;;;4.72;62.64;100375.38;5112660;27;20047;-32
2022/04/04 03:40:58;;;;;;;15.65;10.00;;;;;;;4.71;62.71;100395.69;5130389;27;20049;-28
2022/04/04 03:43:25;;;;;;;13.38;7.57;;;;;;;4.72;61.99;100378.88;5130775;27;20086;-28
2022/04/04 03:45:50;;;;;;;15.35;8.98;;;;;;;4.87;61.86;100401.91;5130881;27;20532;-30
2022/04/04 03:48:16;;;;;;;15.48;8.48;;;;;;;4.71;62.22;100398.34;5112313;27;20023;-29
2022/04/04 03:50:43;;;;;;;14.10;9.35;;;;;;;4.87;62.60;100409.84;5130578;27;20023;-30
2022/04/04 03:53:09;;;;;;;15.32;10.15;;;;;;;4.87;61.57;100405.38;5129595;27;20050;-28
2022/04/04 03:55:40;;;;;;;16.92;9.70;;;;;;;4.90;62.34;100412.94;5130261;27;20666;-31
2022/04/04 03:58:10;;;;;;;14.30;9.23;;;;;;;4.98;62.19;100420.81;5112253;27;20039;-32
2022/04/04 04:00:38;;;;;;;15.00;8.93;;;;;;;4.85;61.71;100422.41;5130578;27;20088;-29
2022/04/04 04:03:05;;;;;;;14.50;8.88;;;;;;;4.81;61.87;100420.09;5130262;27;20494;-30
2022/04/04 04:05:30;;;;;;;12.35;8.15;;;;;;;4.80;61.37;100428.19;5111948;27;20042;-32
2022/04/04 04:07:56;;;;;;;16.13;10.05;;;;;;;4.80;62.24;100429.03;5130148;27;20023;-31
2022/04/04 04:10:21;;;;;;;12.50;8.80;;;;;;;4.97;60.87;100450.09;5130220;27;20023;-31
2022/04/04 04:12:49;;;;;;;14.40;9.25;;;;;;;5.19;60.93;100465.19;5111792;27;20050;-28
2022/04/04 04:15:18;;;;;;;13.82;9.02;;;;;;;5.12;60.98;100445.69;5111938;27;20124;-29
2022/04/04 04:17:44;;;;;;;14.40;9.23;;;;;;;5.20;60.15;100444.84;5111652;27;20035;-28
2022/04/04 04:20:19;;;;;;;12.82;8.38;;;;;;;5.27;59.59;100461.66;5111684;27;20034;-29
2022/04/04 04:22:55;;;;;;;13.48;9.07;;;;;;;5.59;60.42;100465.09;5111677;27;20027;-29
2022/04/04 04:25:22;;;;;;;12.98;9.00;;;;;;;5.67;59.34;100469.50;5109058;27;20032;-32
2022/04/04 04:27:48;;;;;;;14.37;8.63;;;;;;;5.68;59.59;100479.06;5109414;28;20730;-28
2022/04/04 04:30:14;;;;;;;13.43;8.60;;;;;;;5.53;60.73;100463.97;5091276;28;20097;-28
2022/04/04 04:32:45;;;;;;;17.38;8.80;;;;;;;5.68;60.66;100485.22;5090799;28;20035;-28
2022/04/04 04:35:11;;;;;;;15.93;9.63;;;;;;;5.87;59.65;100491.03;5108863;28;20558;-35
2022/04/04 04:37:37;;;;;;;15.18;8.90;;;;;;;5.72;60.11;100480.38;5109320;28;20101;-34
2022/04/04 04:40:05;;;;;;;14.00;8.85;;;;;;;5.78;60.34;100487.59;5091156;28;20046;-28
2022/04/04 04:42:32;;;;;;;14.60;9.98;;;;;;;5.73;59.85;100488.13;5090371;28;20035;-28
2022/04/04 04:44:57;;;;;;;13.02;8.80;;;;;;;5.59;61.13;100470.38;5090684;28;20446;-32
2022/04/04 04:47:23;;;;;;;13.93;9.50;;;;;;;5.57;61.06;100480.31;5109012;28;20540;-28
2022/04/04 04:49:48;;;;;;;16.08;11.05;;;;;;;5.80;60.79;100482.94;5108953;28;20038;-31
2022/04/04 04:52:15;;;;;;;17.33;10.63;;;;;;;5.94;60.64;100499.88;5109114;28;20020;-29
2022/04/04 04:54:42;;;;;;;13.43;9.10;;;;;;;5.83;61.25;100504.59;5108862;28;20511;-29
2022/04/04 04:57:08;;;;;;;13.98;9.35;;;;;;;5.75;61.49;100490.59;5108778;28;20075;-29
2022/04/04 04:59:34;;;;;;;17.10;10.00;;;;;;;5.81;63.34;100508.44;5090400;28;20024;-35
2022/04/04 05:02:00;;;;;;;13.88;9.30;;;;;;;5.81;62.14;100511.06;5090444;28;20096;-31
2022/04/04 05:04:25;;;;;;;16.33;9.63;;;;;;;6.27;61.05;100511.03;5090280;28;20118;-30
2022/04/04 05:06:51;;;;;;;14.63;9.15;;;;;;;6.35;60.90;100537.47;5108614;28;20523;-29
2022/04/04 05:09:19;;;;;;;15.30;9.88;;;;;;;6.40;60.17;100518.41;5108758;28;20773;-30
2022/04/04 05:11:44;;;;;;;;;;;;;;;6.59;59.00;100540.88;5109150;28;20045;-29
2022/04/04 05:14:15;;;;;;;15.27;9.30;;;;;;;6.82;59.00;100546.97;5108699;28;20310;-34
2022/04/04 05:16:44;;;;;;;14.13;9.48;;;;;;;6.91;58.96;100545.03;5108524;28;20061;-30
2022/04/04 05:19:11;;;;;;;15.27;9.25;;;;;;;6.89;58.01;100532.97;5090239;28;20028;-31
2022/04/04 05:21:38;;;;;;;14.23;9.77;;;;;;;7.13;58.10;100545.94;5090437;28;20039;-33
2022/04/04 05:24:05;;;;;;;14.07;9.70;;;;;;;6.96;58.01;100547.13;5089968;28;20058;-28
2022/04/04 05:26:31;;;;;;;14.30;9.10;;;;;;;6.98;58.48;100543.28;5108323;28;20413;-30
2022/04/04 05:28:57;;;;;;;15.93;9.48;;;;;;;7.08;58.42;100550.97;5108069;28;20296;-29
2022/04/04 05:31:23;;;;;;;15.38;9.52;;;;;;;7.07;58.79;100551.13;5107855;28;20023;-31
2022/04/04 05:33:48;;;;;;;13.73;9.32;;;;;;;7.03;58.87;100537.44;5108265;28;20044;-28
2022/04/04 05:36:14;;;;;;;15.30;10.20;;;;;;;7.20;59.61;100549.47;5108350;28;20031;-28
2022/04/04 05:38:39;;;;;;;15.25;10.38;;;;;;;7.32;60.15;100562.28;5089876;28;20100;-29
2022/04/04 05:41:05;;;;;;;14.70;9.68;;;;;;;7.36;58.84;100564.38;5108018;28;20407;-29
2022/04/04 05:43:30;;;;;;;15.50;9.02;;;;;;;7.23;59.41;100559.75;5108045;28;20573;-32
2022/04/04 05:45:55;;;;;;;16.27;9.88;;;;;;;7.40;59.07;100570.16;5107836;28;20393;-29
2022/04/04 05:48:23;;;;;;;13.77;8.68;;;;;;;7.51;59.21;100580.28;5089576;28;20068;-32
2022/04/04 05:50:48;;;;;;;13.93;9.52;;;;;;;7.65;58.84;100563.50;5108130;28;20041;-31
2022/04/04 05:53:14;;;;;;;14.80;9.93;;;;;;;7.85;58.50;100582.28;5091488;28;20035;-31
2022/04/04 05:55:39;;;;;;;14.95;10.48;;;;;;;7.66;58.68;100566.97;5107841;28;20033;-28
2022/04/04 05:58:05;;;;;;;13.57;8.75;;;;;;;7.78;58.82;100572.59;5107972;28;20031;-28
2022/04/04 06:00:30;;;;;;;14.18;9.75;;;;;;;8.30;56.96;100591.94;5107679;28;20430;-29
2022/04/04 06:02:56;;;;;;;15.68;9.82;;;;;;;8.44;56.98;100588.41;5107960;28;20059;-33
2022/04/04 06:05:22;;;;;;;13.90;8.98;;;;;;;8.34;57.54;100591.34;5108030;28;20027;-28
2022/04/04 06:07:47;;;;;;;14.65;10.13;;;;;;;8.38;57.89;100579.31;5106981;28;20082;-29
2022/04/04 06:10:13;;;;;;;15.23;10.52;;;;;;;8.30;57.81;100576.81;5088379;28;20427;-31
2022/04/04 06:12:39;;;;;;;14.00;9.88;;;;;;;8.30;58.15;100582.13;5106865;28;20702;-30
2022/04/04 06:15:06;;;;;;;14.85;9.75;;;;;;;8.19;58.37;100575.47;5088780;28;20024;-29
2022/04/04 06:17:32;;;;;;;22.13;12.02;;;;;;;8.20;58.44;100571.00;5089275;28;20039;-29
2022/04/04 06:19:58;;;;;;;24.25;13.65;;;;;;;8.26;57.01;100580.84;5092075;28;20032;-29
2022/04/04 06:22:24;;;;;;;20.65;11.40;;;;;;;8.30;57.37;100574.16;5099469;28;20035;-30
2022/04/04 06:24:51;;;;;;;19.80;11.45;;;;;;;8.45;57.93;100585.53;5088939;28;20028;-31
2022/04/04 06:27:17;;;;;;;14.57;9.80;;;;;;;8.42;57.77;100569.97;5089343;28;20035;-29
2022/04/04 06:29:43;;;;;;;15.60;9.80;;;;;;;8.67;57.10;100569.56;5084787;28;20114;-28
2022/04/04 06:32:12;;;;;;;14.73;9.82;;;;;;;8.67;57.70;100560.75;5089105;28;20062;-29
2022/04/04 06:34:40;;;;;;;13.63;8.43;;;;;;;8.22;55.40;100559.16;5107559;28;20096;-30
2022/04/04 06:37:05;;;;;;;13.70;8.55;;;;;;;8.22;54.80;100579.59;5107295;28;20106;-29
2022/04/04 06:39:31;;;;;;;13.20;8.50;;;;;;;8.51;53.94;100589.25;5089061;28;20131;-34
2022/04/04 06:41:57;;;;;;;12.52;8.57;;;;;;;8.48;55.08;100578.19;5107501;28;20491;-32
2022/04/04 06:44:23;;;;;;;20.33;11.43;;;;;;;8.82;57.68;100591.53;5107347;28;20087;-31
2022/04/04 06:46:49;;;;;;;13.82;9.30;;;;;;;8.95;53.14;100597.94;5107458;28;20020;-36
2022/04/04 06:49:15;;;;;;;13.50;9.60;;;;;;;8.81;54.26;100579.25;5088994;28;20038;-28
2022/04/04 06:51:40;;;;;;;13.63;9.57;;;;;;;9.25;55.77;100586.06;5088978;28;20058;-29
2022/04/04 06:54:07;;;;;;;14.70;9.75;;;;;;;9.33;55.18;100581.59;5107182;28;20392;-29
2022/04/04 06:56:34;;;;;;;12.38;7.75;;;;;;;9.58;50.84;100606.69;5107196;28;20030;-30
2022/04/04 06:59:00;;;;;;;13.27;7.97;;;;;;;8.88;51.98;100599.75;5088397;28;20032;-31
2022/04/04 07:01:26;;;;;;;10.65;7.10;;;;;;;9.05;50.93;100619.72;5088813;28;20057;-29
2022/04/04 07:03:51;;;;;;;11.98;8.30;;;;;;;9.09;51.98;100618.28;5107307;28;20080;-30
2022/04/04 07:06:16;;;;;;;12.70;8.30;;;;;;;9.05;52.10;100590.44;5091813;28;20019;-31
2022/04/04 07:08:43;;;;;;;13.23;7.90;;;;;;;9.40;52.33;100601.09;5110886;28;20023;-28
2022/04/04 07:11:10;;;;;;;11.68;7.90;;;;;;;9.63;50.99;100604.25;5110610;28;20035;-33
2022/04/04 07:13:39;;;;;;;10.98;7.93;;;;;;;9.65;50.37;100620.84;5111242;28;20042;-29
2022/04/04 07:16:05;;;;;;;15.48;8.40;;;;;;;9.72;52.36;100617.38;5092547;28;20043;-35
2022/04/04 07:18:30;;;;;;;14.63;8.23;;;;;;;9.73;49.98;100598.53;5110941;28;20059;-29
2022/04/04 07:20:56;;;;;;;11.15;8.05;;;;;;;10.11;51.72;100622.00;5110483;28;20024;-30
2022/04/04 07:23:21;;;;;;;12.45;8.35;;;;;;;10.27;50.65;100626.94;5092960;28;20063;-29
2022/04/04 07:25:47;;;;;;;10.98;8.13;;;;;;;10.18;50.04;100624.69;5110515;28;20035;-29
2022/04/04 07:28:14;;;;;;;11.07;7.18;;;;;;;9.61;49.87;100619.59;5091994;28;20042;-28
2022/04/04 07:30:41;;;;;;;12.20;8.65;;;;;;;9.81;51.55;100616.19;5092326;28;20047;-33
2022/04/04 07:33:08;;;;;;;10.45;6.88;;;;;;;10.24;50.20;100621.22;5110197;28;20056;-32
2022/04/04 07:35:34;;;;;;;11.85;7.80;;;;;;;10.40;50.15;100625.34;5092123;28;20536;-34
2022/04/04 07:38:00;;;;;;;10.50;7.45;;;;;;;10.23;49.07;100615.03;5110287;28;20108;-28
2022/04/04 07:40:26;;;;;;;12.02;8.13;;;;;;;10.00;49.08;100631.41;5110754;28;20035;-30
2022/04/04 07:42:52;;;;;;;12.23;8.48;;;;;;;10.13;49.09;100627.13;5109981;28;20063;-33
2022/04/04 07:45:18;;;;;;;10.95;7.72;;;;;;;10.43;49.61;100624.94;5110416;28;20062;-30
2022/04/04 07:47:44;;;;;;;13.38;7.82;;;;;;;10.18;47.40;100624.69;5110419;28;20031;-32
2022/04/04 07:50:11;;;;;;;13.35;8.02;;;;;;;10.40;46.92;100618.19;5091798;28;20035;-40
2022/04/04 07:52:37;;;;;;;10.95;8.25;;;;;;;10.86;47.89;100614.66;5092002;28;20023;-32
2022/04/04 07:55:03;;;;;;;13.18;8.82;;;;;;;11.11;48.82;100607.88;5109555;28;20381;-29
2022/04/04 07:57:29;;;;;;;11.90;7.95;;;;;;;11.07;46.57;100631.47;5091904;28;20024;-30
2022/04/04 07:59:54;;;;;;;11.02;7.63;;;;;;;11.31;47.44;100602.47;5091906;28;20377;-28
2022/04/04 08:02:20;;;;;;;12.05;8.70;;;;;;;11.62;46.69;100633.78;5110179;28;20043;-28
2022/04/04 08:04:46;;;;;;;11.60;7.80;;;;;;;11.54;46.88;100629.50;5091756;28;20031;-28
2022/04/04 08:07:13;;;;;;;12.15;8.88;;;;;;;11.25;47.80;100620.97;5091484;28;20035;-34
2022/04/04 08:09:39;;;;;;;10.80;7.80;;;;;;;11.32;45.64;100628.97;5109396;28;20547;-28
2022/04/04 08:12:05;;;;;;;11.88;8.20;;;;;;;11.32;46.41;100630.81;5091868;28;20108;-29
2022/04/04 08:14:30;;;;;;;11.57;7.55;;;;;;;11.32;46.23;100620.13;5110181;28;20500;-30
2022/04/04 08:16:56;;;;;;;12.05;8.65;;;;;;;12.09;46.34;100638.94;5108367;28;20031;-29
2022/04/04 08:19:21;;;;;;;11.80;7.78;;;;;;;12.02;46.83;100629.09;5109948;28;20043;-31
2022/04/04 08:21:48;;;;;;;11.38;7.80;;;;;;;11.96;43.42;100629.16;5109618;28;20057;-34
2022/04/04 08:24:14;;;;;;;23.38;13.88;;;;;;;11.72;44.59;100644.03;5091020;28;20081;-29
2022/04/04 08:26:40;;;;;;;12.75;8.50;;;;;;;11.90;44.56;100630.81;5091338;28;20046;-29
2022/04/04 08:29:08;;;;;;;18.48;11.57;;;;;;;11.65;45.29;100623.50;5109553;28;20024;-28
2022/04/04 08:31:34;;;;;;;14.57;8.30;;;;;;;11.94;43.72;100636.56;5109473;28;20042;-37
2022/04/04 08:34:00;;;;;;;11.70;7.93;;;;;;;11.88;42.49;100637.38;5090988;28;20426;-31
2022/04/04 08:36:26;;;;;;;11.98;8.02;;;;;;;12.00;43.66;100617.00;5091109;28;20030;-31
2022/04/04 08:38:51;;;;;;;11.23;7.82;;;;;;;11.85;43.37;100623.41;5090632;28;20036;-29
2022/04/04 08:41:18;;;;;;;17.50;10.05;;;;;;;12.04;42.92;100619.03;5091203;28;20020;-35
2022/04/04 08:43:43;;;;;;;13.73;8.50;;;;;;;12.79;44.25;100606.72;5091074;28;20067;-31
2022/04/04 08:46:09;;;;;;;14.32;8.40;;;;;;;13.07;41.48;100609.72;5091341;28;20453;-33
2022/04/04 08:48:40;;;;;;;12.90;8.27;;;;;;;12.78;41.02;100613.94;5109374;28;20034;-31
2022/04/04 08:51:10;;;;;;;32.85;21.70;;;;;;;12.54;41.80;100610.22;5090797;28;20036;-29
2022/04/04 08:53:37;;;;;;;12.43;8.10;;;;;;;12.49;40.84;100591.34;5109342;28;20035;-28
2022/04/04 08:56:05;;;;;;;12.35;8.75;;;;;;;12.64;41.65;100599.03;5090875;28;20110;-28
2022/04/04 08:58:31;;;;;;;9.88;7.00;;;;;;;13.39;40.03;100617.66;5108972;28;20106;-31
2022/04/04 09:00:56;;;;;;;12.32;8.48;;;;;;;13.75;39.21;100601.75;5108801;28;20030;-31
2022/04/04 09:03:23;;;;;;;11.57;7.82;;;;;;;13.90;39.36;100579.94;5108733;28;20032;-39
2022/04/04 09:06:07;;;;;;;12.43;8.10;;;;;;;13.70;38.88;100569.47;5090202;28;20377;-30
2022/04/04 09:08:44;;;;;;;9.13;6.70;;;;;;;13.45;37.79;100586.50;5108926;28;20093;-31
2022/04/04 09:11:11;;;;;;;9.45;6.47;;;;;;;13.70;37.37;100558.75;5090302;28;20085;-29
2022/04/04 09:13:37;;;;;;;10.73;6.78;;;;;;;13.22;37.85;100574.56;5108608;28;20024;-29
2022/04/04 09:16:04;;;;;;;17.95;9.65;;;;;;;13.54;37.24;100570.91;5090244;28;20023;-31
2022/04/04 09:18:36;;;;;;;15.15;8.52;;;;;;;13.84;37.93;100570.94;5089956;28;20024;-29
2022/04/04 09:21:03;;;;;;;9.52;6.93;;;;;;;13.85;37.52;100562.66;5108242;28;20028;-29
2022/04/04 09:23:54;;;;;;;9.43;6.20;;;;;;;14.42;36.53;100556.81;5108312;28;20050;-29
2022/04/04 09:26:36;;;;;;;9.50;6.72;;;;;;;14.76;36.47;100554.41;5090006;28;20589;-28
2022/04/04 09:29:14;;;;;;;8.63;6.22;;;;;;;15.30;34.38;100540.75;5107875;28;20115;-29
2022/04/04 09:32:05;;;;;;;9.05;6.10;;;;;;;15.61;34.14;100542.16;5108533;28;20030;-28
2022/04/04 09:34:52;;;;;;;8.10;5.90;;;;;;;16.02;32.77;100529.47;5089848;28;20126;-29
2022/04/04 09:37:19;;;;;;;8.70;6.00;;;;;;;15.90;34.18;100528.72;5089771;28;20161;-28
2022/04/04 09:39:45;;;;;;;7.70;5.10;;;;;;;15.77;33.05;100523.66;5089999;28;20043;-29
2022/04/04 09:42:20;;;;;;;9.45;5.82;;;;;;;14.85;34.14;100510.03;5108197;28;20036;-28
2022/04/04 09:45:03;;;;;;;8.77;5.75;;;;;;;15.29;34.34;100489.97;5108077;28;20395;-28
2022/04/04 09:47:49;;;;;;;7.78;4.55;;;;;;;15.61;32.73;100512.59;5089476;28;20027;-36
2022/04/04 09:50:35;;;;;;;8.75;5.20;;;;;;;15.51;32.49;100493.59;5108142;28;20023;-28
2022/04/04 09:53:00;;;;;;;5.85;3.90;;;;;;;14.92;32.87;100501.03;5090230;28;20038;-29
2022/04/04 09:55:31;;;;;;;9.93;5.07;;;;;;;14.66;32.30;100482.50;5107946;28;20027;-33
2022/04/04 09:57:58;;;;;;;12.90;6.10;;;;;;;14.33;34.25;100488.47;5089408;28;20032;-30
2022/04/04 10:00:24;;;;;;;8.73;5.03;;;;;;;14.52;34.39;100488.34;5089519;28;20045;-33
2022/04/04 10:02:53;;;;;;;11.32;7.13;;;;;;;14.40;35.15;100478.41;5089437;28;20767;-30
2022/04/04 10:05:21;;;;;;;8.88;4.63;;;;;;;15.10;33.19;100498.19;5089391;28;20028;-36
2022/04/04 10:07:49;;;;;;;15.70;8.57;;;;;;;14.80;35.31;100484.94;5107594;28;20040;-33
2022/04/04 10:10:16;;;;;;;8.10;5.25;;;;;;;14.62;34.83;100469.81;5089398;28;20499;-32
2022/04/04 10:12:43;;;;;;;7.07;4.43;;;;;;;14.73;32.75;100466.28;5089137;28;20028;-29
2022/04/04 10:15:09;;;;;;;7.07;4.35;;;;;;;14.81;33.76;100452.50;5107652;28;20023;-28
2022/04/04 10:17:35;;;;;;;6.35;3.70;;;;;;;15.08;31.85;100468.06;5107553;28;20035;-33
2022/04/04 10:20:01;;;;;;;7.38;4.70;;;;;;;15.20;32.71;100468.84;5089343;28;20481;-33
2022/04/04 10:22:27;;;;;;;8.15;4.72;;;;;;;15.18;32.91;100467.44;5107725;28;20031;-28
2022/04/04 10:24:53;;;;;;;7.20;4.70;;;;;;;15.26;33.45;100459.81;5088939;28;20062;-32
2022/04/04 10:27:20;;;;;;;7.95;4.40;;;;;;;15.95;33.36;100472.31;5089330;28;20502;-36
2022/04/04 10:29:47;;;;;;;7.25;4.70;;;;;;;16.28;33.62;100470.66;5088944;28;20035;-29
2022/04/04 10:32:28;;;;;;;7.80;4.97;;;;;;;16.54;32.03;100463.78;5089474;28;20046;-32
2022/04/04 10:34:55;;;;;;;7.00;4.70;;;;;;;16.38;32.01;100472.69;5108950;28;20063;-31
2022/04/04 10:37:26;;;;;;;9.85;4.55;;;;;;;16.84;32.89;100463.41;5094925;28;20791;-29
2022/04/04 10:39:52;;;;;;;11.43;7.28;;;;;;;17.16;32.13;100456.47;5107104;27;20126;-29
2022/04/04 10:42:30;;;;;;;8.65;5.38;;;;;;;16.51;32.28;100455.38;5130024;27;20098;-30
2022/04/04 10:45:00;;;;;;;8.38;6.18;;;;;;;16.55;32.24;100456.50;5100988;28;20023;-30
2022/04/04 10:47:28;;;;;;;7.22;4.97;;;;;;;16.57;31.03;100435.53;5116550;27;20506;-29
2022/04/04 10:50:24;;;;;;;8.90;5.90;;;;;;;17.09;32.42;100443.19;5102877;28;20118;-34
2022/04/04 10:52:51;;;;;;;10.02;5.60;;;;;;;16.85;30.45;100443.47;5108682;27;20276;-30
2022/04/04 10:55:27;;;;;;;7.53;4.78;;;;;;;17.13;30.07;100438.94;5101460;28;20093;-28
2022/04/04 10:58:21;;;;;;;7.40;5.35;;;;;;;17.74;30.02;100440.59;5102843;27;20038;-31
2022/04/04 11:00:53;;;;;;;6.93;5.20;;;;;;;17.45;29.04;100430.91;5096922;27;20035;-36
2022/04/04 11:03:39;;;;;;;7.68;5.15;;;;;;;16.82;29.85;100417.03;5100192;27;20035;-28
2022/04/04 11:09:14;;;;;;;7.25;5.30;;;;;;;17.20;31.04;100395.59;5116351;27;20182;-33
2022/04/04 11:11:52;;;;;;;7.47;5.40;;;;;;;17.43;29.90;100397.19;5103723;28;20030;-33
2022/04/04 11:14:19;;;;;;;8.55;5.18;;;;;;;17.29;30.60;100409.47;5100944;27;20388;-31
2022/04/04 11:17:06;;;;;;;7.18;5.05;;;;;;;17.21;31.11;100403.44;5101530;28;20031;-31
2022/04/04 11:19:52;;;;;;;8.93;5.43;;;;;;;17.26;30.95;100406.19;5122506;27;20026;-30
2022/04/04 11:22:22;;;;;;;24.05;13.40;;;;;;;16.93;30.73;100401.00;5107025;28;20576;-29
2022/04/04 11:25:07;;;;;;;15.70;10.82;;;;;;;17.34;31.70;100396.00;5092139;28;20671;-30
2022/04/04 11:27:35;;;;;;;7.30;4.78;;;;;;;16.81;30.41;100396.53;5097542;28;20031;-29